Terminal Aerodrome Forecast
Issued by NWS Cleveland, OH

Home | Current Version | Previous Version | Text Only | Print | Product List | Glossary Off
Versions: 1 2 3 4 5 6 7 8 9 10 11 12 13 14 15 16 17 18 19 20 21 22 23 24

000
FTUS41 KCLE 280200 AAB
TAFERI
TAF AMD
KERI 280227Z 2802/2824 24006KT 6SM -SHRA VCTS OVC060CB
      TEMPO 2802/2804 3SM -TSRA OVC012CB
     FM280400 36006KT 6SM -SHRA BR SCT012 OVC035
     FM280600 34010KT 5SM BR OVC012
     FM281600 34014G22KT P6SM OVC015=

USA.gov is the U.S. government's official web portal to all federal, state and local government web resources and services.